createdAt,value
2017-07-19T00:03:58.029Z,91.66
2017-07-19T00:08:54.508Z,91.22
2017-07-19T00:13:52.394Z,91.90
2017-07-19T00:18:49.348Z,91.71
2017-07-19T00:23:45.459Z,91.80
2017-07-19T00:28:42.360Z,91.90
2017-07-19T00:33:38.043Z,93.05
2017-07-19T00:38:35.096Z,92.52
2017-07-19T00:43:32.221Z,92.62
2017-07-19T00:48:28.071Z,93.01
2017-07-19T00:53:24.010Z,93.39
2017-07-19T00:58:21.001Z,93.49
2017-07-19T01:03:17.008Z,93.29
2017-07-19T01:08:13.464Z,93.19
2017-07-19T01:13:09.369Z,93.58
2017-07-19T01:18:05.570Z,93.77
2017-07-19T01:23:04.623Z,93.96
2017-07-19T01:28:00.788Z,93.10
2017-07-19T01:32:57.723Z,93.58
2017-07-19T01:37:56.393Z,92.47
2017-07-19T01:42:58.195Z,92.62
2017-07-19T01:47:52.844Z,93.49
2017-07-19T01:52:48.864Z,93.39
2017-07-19T01:57:44.767Z,93.29
2017-07-19T02:02:42.001Z,93.29
2017-07-19T02:07:37.678Z,94.16
2017-07-19T02:12:33.842Z,94.73
2017-07-19T02:17:30.964Z,94.73
2017-07-19T02:22:28.199Z,94.54
2017-07-19T02:27:23.648Z,94.73
2017-07-19T02:32:19.584Z,94.40
2017-07-19T02:37:15.562Z,95.07
2017-07-19T02:42:11.676Z,95.26
2017-07-19T02:47:08.499Z,94.88
2017-07-19T02:52:04.475Z,94.98
2017-07-19T02:57:00.399Z,95.84
2017-07-19T03:01:56.258Z,95.55
2017-07-19T03:06:52.772Z,95.65
2017-07-19T03:11:48.450Z,95.84
2017-07-19T03:16:45.039Z,95.94
2017-07-19T03:21:41.027Z,96.22
2017-07-19T03:26:36.937Z,95.75
2017-07-19T03:31:33.829Z,96.22
2017-07-19T03:41:31.984Z,95.60
2017-07-19T03:46:28.257Z,94.98
2017-07-19T03:51:24.038Z,93.87
2017-07-19T03:56:20.266Z,95.31
2017-07-19T04:01:16.401Z,95.17
2017-07-19T04:06:12.348Z,94.78
2017-07-19T04:11:08.388Z,93.87
2017-07-19T04:16:04.838Z,93.49
2017-07-19T04:21:03.121Z,93.10
2017-07-19T04:25:58.891Z,92.19
2017-07-19T04:30:55.308Z,92.19
2017-07-19T04:35:51.376Z,91.56
2017-07-19T04:40:47.945Z,90.41
2017-07-19T04:45:45.160Z,90.98
2017-07-19T04:50:42.166Z,90.35
2017-07-19T04:55:38.506Z,88.09
2017-07-19T05:00:35.867Z,86.05
2017-07-19T05:05:33.042Z,84.12
2017-07-19T05:10:30.439Z,84.36
2017-07-19T05:15:27.540Z,83.01
2017-07-19T05:20:27.819Z,82.48
2017-07-19T05:25:23.114Z,83.15
2017-07-19T05:30:18.904Z,82.82
2017-07-19T05:35:14.873Z,82.57
2017-07-19T05:40:11.086Z,83.34
2017-07-19T05:45:07.242Z,81.26
2017-07-19T05:50:03.369Z,80.58
2017-07-19T05:54:59.744Z,81.55
2017-07-19T05:59:56.860Z,81.22
2017-07-19T06:04:52.391Z,81.99
2017-07-19T06:09:48.476Z,82.86
2017-07-19T06:14:44.597Z,83.83
2017-07-19T06:19:41.868Z,84.31
2017-07-19T06:24:38.338Z,84.59
2017-07-19T06:29:35.167Z,84.27
2017-07-19T06:34:31.310Z,84.89
2017-07-19T06:39:29.238Z,84.69
2017-07-19T06:44:26.076Z,85.08
2017-07-19T06:49:22.906Z,84.89
2017-07-19T06:54:18.827Z,85.50
2017-07-19T06:59:16.147Z,84.83
2017-07-19T07:04:11.713Z,85.22
2017-07-19T07:09:07.892Z,84.93
2017-07-19T07:14:05.086Z,84.35
2017-07-19T07:19:02.929Z,84.39
2017-07-19T07:23:59.072Z,83.81
2017-07-19T07:28:55.214Z,83.42
2017-07-19T07:33:51.841Z,82.89
2017-07-19T07:38:48.316Z,83.08
2017-07-19T07:43:45.311Z,82.15
2017-07-19T07:48:41.202Z,81.77
2017-07-19T07:53:38.581Z,81.04
2017-07-19T07:58:35.412Z,79.33
2017-07-19T08:03:33.142Z,77.09
2017-07-19T08:08:31.749Z,75.28
2017-07-19T08:13:28.323Z,75.77
2017-07-19T08:18:25.988Z,75.13
2017-07-19T08:23:22.930Z,72.93
2017-07-19T08:28:20.165Z,71.42
2017-07-19T08:33:18.060Z,71.03
2017-07-19T08:38:14.223Z,70.73
2017-07-19T08:43:10.706Z,69.93
2017-07-19T08:48:06.738Z,70.67
2017-07-19T08:53:01.982Z,72.58
2017-07-19T08:57:58.731Z,72.29
2017-07-19T09:02:56.103Z,71.45
2017-07-19T09:07:52.958Z,72.52
2017-07-19T09:12:49.971Z,71.36
2017-07-19T09:17:48.235Z,69.48
2017-07-19T09:22:45.823Z,68.54
2017-07-19T09:27:41.204Z,68.70
2017-07-19T09:32:39.228Z,68.99
2017-07-19T09:37:35.360Z,69.87
2017-07-19T09:42:33.902Z,68.09
2017-07-19T09:47:30.931Z,66.63
2017-07-19T09:52:27.076Z,67.50
2017-07-19T09:57:24.040Z,66.47
2017-07-19T10:02:20.850Z,64.75
2017-07-19T10:07:17.508Z,64.45
2017-07-19T10:12:13.734Z,64.36
2017-07-19T10:17:10.474Z,63.45
2017-07-19T10:22:07.189Z,63.35
2017-07-19T10:27:05.905Z,61.99
2017-07-19T10:32:02.119Z,62.02
2017-07-19T10:36:58.703Z,61.76
2017-07-19T10:41:57.480Z,60.58
2017-07-19T10:46:53.393Z,61.00
2017-07-19T10:51:49.857Z,59.01
2017-07-19T10:56:47.776Z,58.50
2017-07-19T11:01:44.061Z,59.01
2017-07-19T11:06:40.557Z,58.79
2017-07-19T11:11:36.835Z,60.64
2017-07-19T11:16:33.514Z,60.77
2017-07-19T11:21:30.240Z,58.55
2017-07-19T11:26:27.989Z,59.14
2017-07-19T11:31:24.341Z,57.99
2017-07-19T11:36:20.867Z,57.60
2017-07-19T11:41:17.513Z,57.43
2017-07-19T11:46:14.150Z,57.60
2017-07-19T11:51:09.788Z,57.50
2017-07-19T11:56:03.934Z,58.65
2017-07-19T12:00:58.512Z,58.55
2017-07-19T12:05:54.063Z,59.59
2017-07-19T12:10:51.032Z,59.43
2017-07-19T12:15:48.400Z,57.60
2017-07-19T12:20:45.750Z,58.31
2017-07-19T12:25:44.560Z,56.21
2017-07-19T12:30:40.906Z,56.97
2017-07-19T12:35:36.439Z,55.99
2017-07-19T12:40:32.523Z,56.56
2017-07-19T12:45:29.152Z,55.57
2017-07-19T12:50:25.931Z,55.01
2017-07-19T12:55:21.466Z,55.67
2017-07-19T13:00:16.877Z,55.41
2017-07-19T13:05:13.049Z,55.31
2017-07-19T13:10:09.692Z,54.23
2017-07-19T13:15:08.066Z,54.94
2017-07-19T13:20:03.667Z,53.96
2017-07-19T13:25:00.329Z,54.16
2017-07-19T13:29:57.300Z,54.28
2017-07-19T13:34:54.457Z,50.76
2017-07-19T13:39:53.382Z,50.56
2017-07-19T13:44:48.606Z,48.72
2017-07-19T13:49:44.797Z,45.12
2017-07-19T13:54:42.934Z,45.54
2017-07-19T13:59:39.067Z,44.95
2017-07-19T14:04:35.524Z,43.58
2017-07-19T14:09:31.090Z,45.01
2017-07-19T14:14:26.494Z,45.98
2017-07-19T14:19:23.451Z,46.57
2017-07-19T14:24:18.929Z,47.16
2017-07-19T14:29:14.888Z,46.86
2017-07-19T14:34:11.101Z,50.98
2017-07-19T14:39:08.219Z,48.14
2017-07-19T14:44:03.662Z,47.63
2017-07-19T14:48:59.510Z,47.80
2017-07-19T14:53:55.372Z,48.99
2017-07-19T14:58:51.433Z,48.19
2017-07-19T15:03:47.251Z,48.58
2017-07-19T15:08:43.311Z,49.92
2017-07-19T15:13:40.082Z,51.59
2017-07-19T15:18:36.517Z,53.03
2017-07-19T15:23:32.087Z,53.88
2017-07-19T15:28:28.068Z,55.41
2017-07-19T15:33:24.675Z,53.16
2017-07-19T15:38:21.914Z,55.88
2017-07-19T15:43:16.557Z,61.61
2017-07-19T15:48:11.857Z,66.50
2017-07-19T15:53:07.312Z,72.92
2017-07-19T15:58:02.978Z,81.56
2017-07-19T16:02:57.899Z,87.23
2017-07-19T16:07:54.245Z,91.15
2017-07-19T16:12:50.484Z,94.20
2017-07-19T16:17:45.630Z,95.16
2017-07-19T16:22:42.273Z,95.11
2017-07-19T16:27:38.637Z,98.39
2017-07-19T16:32:34.893Z,98.54
2017-07-19T16:37:30.475Z,96.80
2017-07-19T16:42:26.129Z,97.47
2017-07-19T16:47:21.853Z,99.99
2017-07-19T16:52:18.445Z,99.99
2017-07-19T16:57:16.384Z,99.99
2017-07-19T17:02:11.968Z,99.99
2017-07-19T17:07:09.276Z,99.99
2017-07-19T17:12:06.205Z,99.99
2017-07-19T17:17:02.480Z,99.45
2017-07-19T17:21:58.626Z,99.99
2017-07-19T17:26:54.878Z,98.87
2017-07-19T17:31:51.871Z,98.58
2017-07-19T17:36:47.941Z,98.00
2017-07-19T17:41:44.016Z,96.99
2017-07-19T17:46:41.478Z,96.99
2017-07-19T17:51:37.356Z,95.64
2017-07-19T17:56:33.720Z,95.98
2017-07-19T18:01:29.824Z,95.78
2017-07-19T18:06:25.791Z,95.78
2017-07-19T18:11:22.419Z,96.36
2017-07-19T18:16:18.822Z,97.62
2017-07-19T18:21:16.359Z,99.99
2017-07-19T18:26:12.061Z,99.99
2017-07-19T18:31:09.037Z,99.99
2017-07-19T18:36:04.587Z,99.99
2017-07-19T18:41:00.188Z,99.99
2017-07-19T18:45:56.283Z,99.99
2017-07-19T18:50:52.931Z,99.99
2017-07-19T18:55:48.659Z,99.99
2017-07-19T19:00:44.645Z,99.99
2017-07-19T19:05:42.533Z,99.99
2017-07-19T19:10:39.238Z,99.99
2017-07-19T19:15:34.926Z,99.99
2017-07-19T19:20:31.234Z,99.99
2017-07-19T19:25:26.998Z,99.99
2017-07-19T19:30:22.793Z,99.99
2017-07-19T19:35:19.374Z,99.99
2017-07-19T19:40:16.845Z,99.99
2017-07-19T19:45:12.200Z,99.99
2017-07-19T19:50:08.458Z,99.99
2017-07-19T19:55:05.465Z,99.99
2017-07-19T20:00:01.196Z,99.99
2017-07-19T20:04:59.331Z,99.99
2017-07-19T20:09:54.559Z,99.99
2017-07-19T20:14:50.273Z,99.99
2017-07-19T20:19:46.867Z,99.99
2017-07-19T20:24:43.390Z,99.99
2017-07-19T20:29:38.974Z,99.99
2017-07-19T20:34:35.823Z,99.99
2017-07-19T20:39:31.461Z,99.99
2017-07-19T20:44:28.392Z,99.99
2017-07-19T20:49:24.505Z,99.99
2017-07-19T20:54:21.360Z,99.99
2017-07-19T20:59:17.566Z,99.99
2017-07-19T21:04:15.147Z,99.99
2017-07-19T21:09:11.739Z,99.99
2017-07-19T21:14:08.702Z,99.99
2017-07-19T21:19:04.436Z,99.99
2017-07-19T21:24:00.788Z,99.99
2017-07-19T21:28:57.575Z,99.99
2017-07-19T21:33:53.621Z,99.99
2017-07-19T21:38:50.658Z,99.99
2017-07-19T21:43:46.394Z,99.99
2017-07-19T21:48:42.972Z,99.99
2017-07-19T21:53:39.836Z,99.99
2017-07-19T21:58:35.546Z,99.99
2017-07-19T22:03:31.896Z,99.99
2017-07-19T22:08:27.656Z,99.99
2017-07-19T22:13:23.828Z,99.99
2017-07-19T22:18:20.818Z,99.99
2017-07-19T22:23:18.320Z,99.99
2017-07-19T22:28:14.578Z,99.99
2017-07-19T22:33:11.304Z,99.99
2017-07-19T22:38:08.391Z,99.99
2017-07-19T22:43:05.028Z,99.99
2017-07-19T22:48:02.050Z,99.99
2017-07-19T22:52:57.893Z,99.99
2017-07-19T22:57:54.031Z,99.99
2017-07-19T23:02:50.716Z,99.99
2017-07-19T23:07:46.744Z,99.99
2017-07-19T23:12:44.844Z,99.99
2017-07-19T23:17:41.263Z,99.99
2017-07-19T23:22:37.063Z,99.99
2017-07-19T23:27:32.906Z,99.99
2017-07-19T23:32:28.789Z,99.99
2017-07-19T23:37:27.891Z,99.99
2017-07-19T23:42:23.506Z,99.99
2017-07-19T23:47:20.924Z,99.99
2017-07-19T23:52:17.656Z,99.99
2017-07-19T23:57:14.334Z,99.99
